This is the latest recevied weather packets stored in our database for station/object KD2CRT. If no packets are shown the sender has not sent any weather packets the latest 10 day(s).
| Time | Temp. | Humidity | Pressure | Rain* | Wind** | Luminosity | Snow |
|---|---|---|---|---|---|---|---|
| 1778029208 | 23.33° C | 46% | 994.7 hPa | 0 mm | - | - | - |
| 1778029204 | 23.33° C | 46% | 994.7 hPa | 0 mm | - | - | - |
| 1778025644 | 25° C | 41% | 994 hPa | 0 mm | - | - | - |
| 1778018440 | 27.78° C | 30% | 993.2 hPa | 0 mm | - | - | - |
| 1778011243 | 28.89° C | 33% | 992.9 hPa | 0 mm | - | - | - |
| 1778007610 | 28.89° C | 34% | 993.6 hPa | 0 mm | - | - | - |
| 1778007598 | 28.89° C | 34% | 993.7 hPa | 0 mm | - | - | - |
| 1778004054 | 28.89° C | 36% | 994.4 hPa | 0 mm | - | - | - |
| 1778000412 | 28.89° C | 43% | 994.7 hPa | 0 mm | - | - | - |
| 1778000409 | 28.89° C | 43% | 994.7 hPa | 0 mm | - | - | - |
| 1777996855 | 27.22° C | 42% | 995.5 hPa | 0 mm | - | - | - |
| 1777993210 | 26.11° C | 48% | 995.8 hPa | 0 mm | - | - | - |
| 1777993207 | 26.11° C | 48% | 995.8 hPa | 0 mm | - | - | - |
| 1777978851 | 13.33° C | 83% | 996.5 hPa | 0 mm | - | - | - |
| 1777975208 | 13.33° C | 82% | 996.5 hPa | 0 mm | - | - | - |
| 1777968028 | 10.56° C | 87% | 995.6 hPa | 0 mm | - | - | - |
| 1777960809 | 11.67° C | 79% | 995.5 hPa | 0 mm | - | - | - |
| 1777953648 | 15° C | 66% | 995.8 hPa | 0 mm | - | - | - |
| 1777950002 | 15.56° C | 60% | 995.9 hPa | 0 mm | - | - | - |
| 1777946453 | 14.44° C | 58% | 996.2 hPa | 0 mm | - | - | - |
| 1777942814 | 17.22° C | 48% | 995.4 hPa | 0 mm | - | - | - |
| 1777942806 | 17.22° C | 48% | 995.4 hPa | 0 mm | - | - | - |
| 1777939258 | 20° C | 40% | 994.9 hPa | 0 mm | - | - | - |
| 1777935614 | 22.22° C | 35% | 994.3 hPa | 0 mm | - | - | - |
| 1777935610 | 22.22° C | 35% | 994.3 hPa | 0 mm | - | - | - |
* Rain latest hour (hover to see other rain measurements)
** Current wind speed in m/s (hover to see current wind gust speed)